Terminal Aerodrome Forecast
Issued by NWS

Home | Current Version | Previous Version | Text Only | Print | Product List | Glossary On
Versions: 1 2 3 4 5 6 7 8 9 10 11 12
000
FTUS43 KFGF 280520
TAFDVL
TAF
KDVL 280520Z 2806/2906 VRB06KT P6SM OVC080
      TEMPO 2806/2809 4SM -TSRA OVC040CB
     FM280900 25006KT P6SM OVC040
      TEMPO 2809/2812 -SHRA
     FM281500 31014G23KT P6SM BKN150
     FM290100 32009KT P6SM FEW250=

USA.gov is the U.S. government's official web portal to all federal, state and local government web resources and services.